createdAt,value
2018-07-07T00:01:20.979Z,9.63
2018-07-07T00:03:49.082Z,9.57
2018-07-07T00:06:17.668Z,10.20
2018-07-07T00:08:45.992Z,10.65
2018-07-07T00:11:14.305Z,10.93
2018-07-07T00:13:42.657Z,11.40
2018-07-07T00:16:11.119Z,10.53
2018-07-07T00:18:39.422Z,11.27
2018-07-07T00:21:07.518Z,10.20
2018-07-07T00:23:35.746Z,9.40
2018-07-07T00:26:04.142Z,10.60
2018-07-07T00:28:32.560Z,9.97
2018-07-07T00:31:00.907Z,10.45
2018-07-07T00:33:29.200Z,10.47
2018-07-07T00:35:57.641Z,10.60
2018-07-07T00:38:25.956Z,10.50
2018-07-07T00:40:54.921Z,10.97
2018-07-07T00:43:23.238Z,10.93
2018-07-07T00:45:51.593Z,10.13
2018-07-07T00:48:19.902Z,10.10
2018-07-07T00:50:48.192Z,10.97
2018-07-07T00:53:16.477Z,9.13
2018-07-07T00:55:44.833Z,11.07
2018-07-07T00:58:13.136Z,9.83
2018-07-07T01:00:49.930Z,10.93
2018-07-07T01:03:18.263Z,10.70
2018-07-07T01:05:47.468Z,10.43
2018-07-07T01:08:16.460Z,9.80
2018-07-07T01:10:45.080Z,10.60
2018-07-07T01:13:13.732Z,9.30
2018-07-07T01:15:42.274Z,10.97
2018-07-07T01:18:10.775Z,10.53
2018-07-07T01:20:39.512Z,10.37
2018-07-07T01:23:07.844Z,10.10
2018-07-07T01:25:36.178Z,9.83
2018-07-07T01:28:04.470Z,10.07
2018-07-07T01:30:32.793Z,10.10
2018-07-07T01:33:01.159Z,10.90
2018-07-07T01:35:29.519Z,11.10
2018-07-07T01:37:57.874Z,11.20
2018-07-07T01:40:26.270Z,10.10
2018-07-07T01:42:54.548Z,10.00
2018-07-07T01:45:22.974Z,9.20
2018-07-07T01:47:51.241Z,9.13
2018-07-07T01:50:19.515Z,9.67
2018-07-07T01:52:47.823Z,9.83
2018-07-07T01:55:16.137Z,10.27
2018-07-07T01:57:44.451Z,9.18
2018-07-07T02:00:12.791Z,10.47
2018-07-07T02:02:41.136Z,11.00
2018-07-07T02:05:09.514Z,10.87
2018-07-07T02:07:38.710Z,10.53
2018-07-07T02:10:06.955Z,9.90
2018-07-07T02:12:35.237Z,11.20
2018-07-07T02:15:03.645Z,11.30
2018-07-07T02:17:32.192Z,11.37
2018-07-07T02:20:00.555Z,10.48
2018-07-07T02:22:28.560Z,11.20
2018-07-07T02:24:56.870Z,10.60
2018-07-07T02:27:25.221Z,9.93
2018-07-07T02:29:54.222Z,10.53
2018-07-07T02:32:22.546Z,10.40
2018-07-07T02:34:50.845Z,9.80
2018-07-07T02:37:19.117Z,10.80
2018-07-07T02:39:47.715Z,10.87
2018-07-07T02:42:16.028Z,10.87
2018-07-07T02:44:44.281Z,10.93
2018-07-07T02:47:12.555Z,10.80
2018-07-07T02:49:40.846Z,10.20
2018-07-07T02:52:09.216Z,10.30
2018-07-07T02:54:37.466Z,10.73
2018-07-07T02:57:05.738Z,10.97
2018-07-07T02:59:33.995Z,8.97
2018-07-07T03:02:02.338Z,10.47
2018-07-07T03:04:30.633Z,10.72
2018-07-07T03:06:58.904Z,11.17
2018-07-07T03:09:27.245Z,11.00
2018-07-07T03:11:55.517Z,10.90
2018-07-07T03:14:23.858Z,10.80
2018-07-07T03:16:52.199Z,10.27
2018-07-07T03:19:20.499Z,11.37
2018-07-07T03:21:48.840Z,11.57
2018-07-07T03:24:17.654Z,10.90
2018-07-07T03:26:45.951Z,11.70
2018-07-07T03:29:14.372Z,10.03
2018-07-07T03:31:42.835Z,11.60
2018-07-07T03:34:11.075Z,11.07
2018-07-07T03:36:39.363Z,11.25
2018-07-07T03:39:08.466Z,11.35
2018-07-07T03:41:36.777Z,10.60
2018-07-07T03:44:05.357Z,10.00
2018-07-07T03:46:33.687Z,10.90
2018-07-07T03:49:02.002Z,11.40
2018-07-07T03:51:30.332Z,10.33
2018-07-07T03:53:58.671Z,10.83
2018-07-07T03:56:26.997Z,12.40
2018-07-07T03:58:55.286Z,13.10
2018-07-07T04:01:23.558Z,11.97
2018-07-07T04:03:51.853Z,12.07
2018-07-07T04:06:20.175Z,12.73
2018-07-07T04:08:48.485Z,12.65
2018-07-07T04:11:16.779Z,11.90
2018-07-07T04:13:45.149Z,12.00
2018-07-07T04:16:13.572Z,11.70
2018-07-07T04:18:43.587Z,12.37
2018-07-07T04:21:11.854Z,11.37
2018-07-07T04:23:40.202Z,12.23
2018-07-07T04:26:08.593Z,11.10
2018-07-07T04:28:48.937Z,10.90
2018-07-07T04:31:17.288Z,11.67
2018-07-07T04:33:45.606Z,11.67
2018-07-07T04:36:13.923Z,11.13
2018-07-07T04:38:42.264Z,10.53
2018-07-07T04:41:10.668Z,10.98
2018-07-07T04:43:39.060Z,10.10
2018-07-07T04:46:07.423Z,11.13
2018-07-07T04:48:35.765Z,11.60
2018-07-07T04:51:04.094Z,10.50
2018-07-07T04:53:32.386Z,11.10
2018-07-07T04:56:00.659Z,11.70
2018-07-07T04:58:28.948Z,11.87
2018-07-07T05:00:57.345Z,11.03
2018-07-07T05:03:25.767Z,12.00
2018-07-07T05:05:54.150Z,12.07
2018-07-07T05:08:22.465Z,11.97
2018-07-07T05:10:50.918Z,12.55
2018-07-07T05:13:19.214Z,12.05
2018-07-07T05:15:47.515Z,12.03
2018-07-07T05:18:15.809Z,12.73
2018-07-07T05:20:44.109Z,13.57
2018-07-07T05:29:13.404Z,12.23
2018-07-07T05:31:42.029Z,12.60
2018-07-07T05:34:10.472Z,13.40
2018-07-07T05:36:38.748Z,12.90
2018-07-07T05:39:07.687Z,13.50
2018-07-07T05:41:36.275Z,14.27
2018-07-07T05:44:04.694Z,14.07
2018-07-07T05:46:33.342Z,13.80
2018-07-07T05:49:01.794Z,13.80
2018-07-07T05:51:30.023Z,13.10
2018-07-07T05:53:58.457Z,14.20
2018-07-07T05:56:26.761Z,15.27
2018-07-07T05:58:55.342Z,14.03
2018-07-07T06:01:24.044Z,15.10
2018-07-07T06:03:52.351Z,15.30
2018-07-07T06:06:20.786Z,15.53
2018-07-07T06:08:49.151Z,16.00
2018-07-07T06:11:17.521Z,16.00
2018-07-07T06:13:45.554Z,15.68
2018-07-07T06:16:13.926Z,15.10
2018-07-07T06:18:42.240Z,15.17
2018-07-07T06:21:10.275Z,15.70
2018-07-07T06:23:38.578Z,15.10
2018-07-07T06:26:06.861Z,15.97
2018-07-07T06:28:35.477Z,17.47
2018-07-07T06:31:04.244Z,15.83
2018-07-07T06:33:32.701Z,15.90
2018-07-07T06:36:01.134Z,15.30
2018-07-07T06:38:29.523Z,16.20
2018-07-07T06:40:58.082Z,15.83
2018-07-07T06:43:26.498Z,15.87
2018-07-07T06:45:54.794Z,16.07
2018-07-07T06:48:23.093Z,16.17
2018-07-07T06:50:51.497Z,22.63
2018-07-07T06:53:19.803Z,16.65
2018-07-07T06:55:48.144Z,15.47
2018-07-07T06:58:16.636Z,16.60
2018-07-07T07:00:45.000Z,16.00
2018-07-07T07:03:13.396Z,17.00
2018-07-07T07:05:41.793Z,16.43
2018-07-07T07:08:10.130Z,15.83
2018-07-07T07:10:38.445Z,16.60
2018-07-07T07:13:06.794Z,15.13
2018-07-07T07:15:35.176Z,15.13
2018-07-07T07:18:04.894Z,14.20
2018-07-07T07:20:33.296Z,14.00
2018-07-07T07:23:01.644Z,15.30
2018-07-07T07:25:29.972Z,13.63
2018-07-07T07:27:58.297Z,14.20
2018-07-07T07:30:26.613Z,13.97
2018-07-07T07:32:55.013Z,13.77
2018-07-07T07:35:23.443Z,14.17
2018-07-07T07:37:51.835Z,14.63
2018-07-07T07:40:20.198Z,13.13
2018-07-07T07:42:49.897Z,14.13
2018-07-07T07:45:18.209Z,12.37
2018-07-07T07:47:46.522Z,11.00
2018-07-07T07:50:14.798Z,12.20
2018-07-07T07:52:43.096Z,12.47
2018-07-07T07:55:11.749Z,12.00
2018-07-07T07:57:40.106Z,12.60
2018-07-07T08:00:08.584Z,12.40
2018-07-07T08:02:37.048Z,11.90
2018-07-07T08:05:05.437Z,11.13
2018-07-07T08:07:33.753Z,11.00
2018-07-07T08:10:02.151Z,10.70
2018-07-07T08:12:31.790Z,9.48
2018-07-07T08:15:00.067Z,9.30
2018-07-07T08:17:28.425Z,10.37
2018-07-07T08:19:56.740Z,9.80
2018-07-07T08:22:25.071Z,9.80
2018-07-07T08:24:53.412Z,9.73
2018-07-07T08:27:21.962Z,9.50
2018-07-07T08:29:50.255Z,9.80
2018-07-07T08:32:18.522Z,10.20
2018-07-07T08:34:46.854Z,11.00
2018-07-07T08:37:15.193Z,11.17
2018-07-07T08:39:43.544Z,11.90
2018-07-07T08:42:12.035Z,13.00
2018-07-07T08:44:40.278Z,11.40
2018-07-07T08:47:08.767Z,11.60
2018-07-07T08:49:37.072Z,14.10
2018-07-07T08:52:05.381Z,12.97
2018-07-07T08:54:33.716Z,15.40
2018-07-07T08:57:02.023Z,15.25
2018-07-07T08:59:30.322Z,13.70
2018-07-07T09:01:58.605Z,15.60
2018-07-07T09:04:26.963Z,13.43
2018-07-07T09:06:55.259Z,14.60
2018-07-07T09:09:23.505Z,14.53
2018-07-07T09:11:51.787Z,14.30
2018-07-07T09:14:20.080Z,13.70
2018-07-07T09:16:48.397Z,13.67
2018-07-07T09:19:16.662Z,15.13
2018-07-07T09:21:45.180Z,13.47
2018-07-07T09:24:13.485Z,13.20
2018-07-07T09:26:41.834Z,14.23
2018-07-07T09:29:10.226Z,13.70
2018-07-07T09:31:38.490Z,14.60
2018-07-07T09:34:06.809Z,13.33
2018-07-07T09:36:35.095Z,12.27
2018-07-07T09:39:04.653Z,13.33
2018-07-07T09:41:32.974Z,12.77
2018-07-07T09:44:01.413Z,11.70
2018-07-07T09:46:29.821Z,11.60
2018-07-07T09:48:58.090Z,12.40
2018-07-07T09:51:26.517Z,11.78
2018-07-07T09:53:54.844Z,12.90
2018-07-07T09:56:23.179Z,12.80
2018-07-07T09:58:51.569Z,12.20
2018-07-07T10:01:20.630Z,12.83
2018-07-07T10:03:48.934Z,11.83
2018-07-07T10:06:17.285Z,12.43
2018-07-07T10:08:45.591Z,13.80
2018-07-07T10:11:13.928Z,13.87
2018-07-07T10:13:42.355Z,11.85
2018-07-07T10:16:10.733Z,12.93
2018-07-07T10:18:39.213Z,12.60
2018-07-07T10:21:07.621Z,13.30
2018-07-07T10:23:35.931Z,12.88
2018-07-07T10:26:04.344Z,12.90
2018-07-07T10:28:32.698Z,12.53
2018-07-07T10:31:00.671Z,13.47
2018-07-07T10:33:29.051Z,13.80
2018-07-07T10:35:57.378Z,13.20
2018-07-07T10:38:25.791Z,14.47
2018-07-07T10:40:54.054Z,12.83
2018-07-07T10:43:22.560Z,14.30
2018-07-07T10:45:50.967Z,14.90
2018-07-07T10:48:19.146Z,14.10
2018-07-07T10:50:47.397Z,13.97
2018-07-07T10:53:15.688Z,12.50
2018-07-07T10:55:44.085Z,13.10
2018-07-07T10:58:12.368Z,11.63
2018-07-07T11:00:40.711Z,12.10
2018-07-07T11:03:09.141Z,13.20
2018-07-07T11:05:37.453Z,12.17
2018-07-07T11:08:06.288Z,12.50
2018-07-07T11:10:34.575Z,12.70
2018-07-07T11:13:02.972Z,12.60
2018-07-07T11:15:31.298Z,12.67
2018-07-07T11:17:59.338Z,12.95
2018-07-07T11:20:27.644Z,11.30
2018-07-07T11:22:55.913Z,11.87
2018-07-07T11:25:24.021Z,13.10
2018-07-07T11:27:53.459Z,12.60
2018-07-07T11:30:21.854Z,13.20
2018-07-07T11:32:50.158Z,14.10
2018-07-07T11:35:18.452Z,12.93
2018-07-07T11:37:46.959Z,13.63
2018-07-07T11:40:15.217Z,13.28
2018-07-07T11:42:43.550Z,11.50
2018-07-07T11:45:11.670Z,11.00
2018-07-07T11:47:40.136Z,11.23
2018-07-07T11:50:08.496Z,11.70
2018-07-07T11:52:36.730Z,11.60
2018-07-07T11:55:05.226Z,12.60
2018-07-07T11:57:33.713Z,12.23
2018-07-07T12:00:02.017Z,11.40
2018-07-07T12:02:30.501Z,12.25
2018-07-07T12:04:58.783Z,10.87
2018-07-07T12:07:27.094Z,11.20
2018-07-07T12:09:55.590Z,11.00
2018-07-07T12:12:24.942Z,11.15
2018-07-07T12:14:53.335Z,10.87
2018-07-07T12:17:21.863Z,11.73
2018-07-07T12:19:50.081Z,11.53
2018-07-07T12:22:18.446Z,11.80
2018-07-07T12:24:46.828Z,11.00
2018-07-07T12:27:15.216Z,11.40
2018-07-07T12:29:43.521Z,11.63
2018-07-07T12:32:11.829Z,13.00
2018-07-07T12:34:40.208Z,12.25
2018-07-07T12:37:08.620Z,12.93
2018-07-07T12:39:37.123Z,12.70
2018-07-07T12:42:05.534Z,12.90
2018-07-07T12:44:34.034Z,13.80
2018-07-07T12:47:02.319Z,13.63
2018-07-07T12:49:30.739Z,12.40
2018-07-07T12:51:59.014Z,13.27
2018-07-07T12:54:27.374Z,14.17
2018-07-07T12:56:55.653Z,13.50
2018-07-07T12:59:23.953Z,14.53
2018-07-07T13:01:52.418Z,13.17
2018-07-07T13:04:20.768Z,13.07
2018-07-07T13:06:49.157Z,14.45
2018-07-07T13:09:17.441Z,12.97
2018-07-07T13:11:45.792Z,13.40
2018-07-07T13:14:14.113Z,13.17
2018-07-07T13:16:42.472Z,13.60
2018-07-07T13:19:10.540Z,13.60
2018-07-07T13:21:38.885Z,12.83
2018-07-07T13:24:07.179Z,11.80
2018-07-07T13:26:35.683Z,12.30
2018-07-07T13:29:04.095Z,11.73
2018-07-07T13:31:32.383Z,12.07
2018-07-07T13:34:00.654Z,11.20
2018-07-07T13:36:29.014Z,10.10
2018-07-07T13:38:57.274Z,9.83
2018-07-07T13:41:25.258Z,9.93
2018-07-07T13:43:53.554Z,10.10
2018-07-07T13:46:21.952Z,11.07
2018-07-07T13:48:50.299Z,10.37
2018-07-07T13:51:18.576Z,10.47
2018-07-07T13:53:46.873Z,9.97
2018-07-07T13:56:15.170Z,9.93
2018-07-07T13:58:43.461Z,10.03
2018-07-07T14:01:12.100Z,9.70
2018-07-07T14:03:40.424Z,9.30
2018-07-07T14:06:08.782Z,10.63
2018-07-07T14:08:37.067Z,9.23
2018-07-07T14:11:06.250Z,9.73
2018-07-07T14:13:34.589Z,8.03
2018-07-07T14:16:02.908Z,9.10
2018-07-07T14:18:31.303Z,10.33
2018-07-07T14:20:59.812Z,10.37
2018-07-07T14:23:27.863Z,8.73
2018-07-07T14:25:57.219Z,10.20
2018-07-07T14:28:25.687Z,10.07
2018-07-07T14:30:54.299Z,9.60
2018-07-07T14:33:22.586Z,8.80
2018-07-07T14:35:50.912Z,11.27
2018-07-07T14:38:21.083Z,9.77
2018-07-07T14:41:00.659Z,9.40
2018-07-07T14:43:40.553Z,9.63
2018-07-07T14:46:09.003Z,10.33
2018-07-07T14:48:37.446Z,9.60
2018-07-07T14:51:05.803Z,10.37
2018-07-07T14:53:34.142Z,9.48
2018-07-07T14:56:02.398Z,9.60
2018-07-07T14:58:30.673Z,10.63
2018-07-07T15:00:59.119Z,10.77
2018-07-07T15:03:27.791Z,10.00
2018-07-07T15:05:56.102Z,9.97
2018-07-07T15:08:24.378Z,9.43
2018-07-07T15:10:53.789Z,9.93
2018-07-07T15:13:22.183Z,9.73
2018-07-07T15:15:50.545Z,10.60
2018-07-07T15:18:18.879Z,10.43
2018-07-07T15:20:47.157Z,10.67
2018-07-07T15:23:15.470Z,9.13
2018-07-07T15:25:44.042Z,9.10
2018-07-07T15:28:12.366Z,9.73
2018-07-07T15:30:40.755Z,9.87
2018-07-07T15:33:09.109Z,9.10
2018-07-07T15:35:37.479Z,9.40
2018-07-07T15:38:05.866Z,9.93
2018-07-07T15:40:34.227Z,11.07
2018-07-07T15:43:02.635Z,10.03
2018-07-07T15:45:31.046Z,10.60
2018-07-07T15:47:59.520Z,11.40
2018-07-07T15:50:27.835Z,10.33
2018-07-07T15:52:56.265Z,11.23
2018-07-07T15:55:24.845Z,11.40
2018-07-07T15:57:53.310Z,11.67
2018-07-07T16:00:21.843Z,11.45
2018-07-07T16:02:50.418Z,10.70
2018-07-07T16:05:18.302Z,10.40
2018-07-07T16:07:46.741Z,10.00
2018-07-07T16:10:15.055Z,10.33
2018-07-07T16:12:43.440Z,10.83
2018-07-07T16:15:11.956Z,11.00
2018-07-07T16:17:40.257Z,11.17
2018-07-07T16:20:08.616Z,10.57
2018-07-07T16:22:36.967Z,11.27
2018-07-07T16:25:05.558Z,11.83
2018-07-07T16:27:33.837Z,12.03
2018-07-07T16:30:02.132Z,10.80
2018-07-07T16:32:30.513Z,11.77
2018-07-07T16:34:58.965Z,12.00
2018-07-07T16:37:27.330Z,11.17
2018-07-07T16:39:55.599Z,10.50
2018-07-07T16:42:24.050Z,11.10
2018-07-07T16:44:52.385Z,10.37
2018-07-07T16:47:20.741Z,10.50
2018-07-07T16:49:49.136Z,10.07
2018-07-07T16:52:17.504Z,11.60
2018-07-07T16:54:46.058Z,11.73
2018-07-07T16:57:16.212Z,11.40
2018-07-07T16:59:44.779Z,10.23
2018-07-07T17:02:13.467Z,11.37
2018-07-07T17:04:41.883Z,10.80
2018-07-07T17:07:10.326Z,10.30
2018-07-07T17:09:38.716Z,10.60
2018-07-07T17:12:07.976Z,11.10
2018-07-07T17:14:36.371Z,10.60
2018-07-07T17:17:04.765Z,11.00
2018-07-07T17:19:34.882Z,10.80
2018-07-07T17:22:03.195Z,10.37
2018-07-07T17:24:32.047Z,10.77
2018-07-07T17:27:00.508Z,11.30
2018-07-07T17:29:29.166Z,10.00
2018-07-07T17:31:57.445Z,11.00
2018-07-07T17:34:25.651Z,11.20
2018-07-07T17:36:54.110Z,10.07
2018-07-07T17:39:22.404Z,10.70
2018-07-07T17:41:50.806Z,11.33
2018-07-07T17:44:19.477Z,10.80
2018-07-07T17:46:47.900Z,11.60
2018-07-07T17:49:16.748Z,11.10
2018-07-07T17:51:45.119Z,10.50
2018-07-07T17:54:13.561Z,12.67
2018-07-07T17:56:41.958Z,11.60
2018-07-07T17:59:10.440Z,11.80
2018-07-07T18:01:38.770Z,10.93
2018-07-07T18:04:07.169Z,11.30
2018-07-07T18:06:35.476Z,11.10
2018-07-07T18:09:04.602Z,10.50
2018-07-07T18:11:33.041Z,10.50
2018-07-07T18:14:01.298Z,10.70
2018-07-07T18:16:29.572Z,11.13
2018-07-07T18:18:57.929Z,11.18
2018-07-07T18:21:26.289Z,10.47
2018-07-07T18:23:54.678Z,10.83
2018-07-07T18:26:23.002Z,12.53
2018-07-07T18:28:51.302Z,12.43
2018-07-07T18:31:19.319Z,11.80
2018-07-07T18:33:47.691Z,11.80
2018-07-07T18:36:16.044Z,11.20
2018-07-07T18:38:44.392Z,11.50
2018-07-07T18:41:12.711Z,12.00
2018-07-07T18:43:41.071Z,12.30
2018-07-07T18:46:09.418Z,11.47
2018-07-07T18:48:37.874Z,11.67
2018-07-07T18:51:06.270Z,11.97
2018-07-07T18:53:34.527Z,11.93
2018-07-07T18:56:03.773Z,11.33
2018-07-07T18:58:32.126Z,11.60
2018-07-07T19:01:01.574Z,12.00
2018-07-07T19:03:29.935Z,11.57
2018-07-07T19:05:58.224Z,12.47
2018-07-07T19:08:26.555Z,15.07
2018-07-07T19:10:54.813Z,12.30
2018-07-07T19:13:23.364Z,12.65
2018-07-07T19:15:51.826Z,11.63
2018-07-07T19:18:20.221Z,11.50
2018-07-07T19:20:53.887Z,11.97
2018-07-07T19:23:27.689Z,13.78
2018-07-07T19:27:04.642Z,12.77
2018-07-07T19:29:32.980Z,13.00
2018-07-07T19:32:06.780Z,13.73
2018-07-07T19:34:40.431Z,12.90
2018-07-07T19:37:17.349Z,13.00
2018-07-07T19:39:46.475Z,12.83
2018-07-07T19:42:15.069Z,12.90
2018-07-07T19:44:43.501Z,12.40
2018-07-07T19:47:12.188Z,12.47
2018-07-07T19:49:41.003Z,12.40
2018-07-07T19:52:10.272Z,13.43
2018-07-07T19:54:38.761Z,13.27
2018-07-07T19:57:07.386Z,13.33
2018-07-07T19:59:36.073Z,13.20
2018-07-07T20:02:04.624Z,14.20
2018-07-07T20:04:32.936Z,12.77
2018-07-07T20:07:01.315Z,12.87
2018-07-07T20:09:35.984Z,12.17
2018-07-07T20:12:04.435Z,13.77
2018-07-07T20:14:32.987Z,13.60
2018-07-07T20:17:05.482Z,12.27
2018-07-07T20:20:51.516Z,13.53
2018-07-07T20:23:20.042Z,13.50
2018-07-07T20:25:53.763Z,13.23
2018-07-07T20:28:27.645Z,13.13
2018-07-07T20:30:58.679Z,14.10
2018-07-07T20:33:27.787Z,12.73
2018-07-07T20:35:56.231Z,13.83
2018-07-07T20:38:24.875Z,12.70
2018-07-07T20:40:53.661Z,14.20
2018-07-07T20:43:22.440Z,13.80
2018-07-07T20:45:50.997Z,13.20
2018-07-07T20:48:19.370Z,13.20
2018-07-07T20:50:47.765Z,13.40
2018-07-07T20:53:16.201Z,13.43
2018-07-07T20:55:44.723Z,13.10
2018-07-07T20:58:13.107Z,12.50
2018-07-07T21:00:41.490Z,13.03
2018-07-07T21:03:10.096Z,14.40
2018-07-07T21:05:38.543Z,13.63
2018-07-07T21:08:07.265Z,13.60
2018-07-07T21:10:36.267Z,13.47
2018-07-07T21:13:04.622Z,14.73
2018-07-07T21:15:33.026Z,13.63
2018-07-07T21:18:01.977Z,15.20
2018-07-07T21:20:30.306Z,13.87
2018-07-07T21:22:58.694Z,14.60
2018-07-07T21:25:27.177Z,14.60
2018-07-07T21:27:55.623Z,14.57
2018-07-07T21:30:24.011Z,15.35
2018-07-07T21:32:52.390Z,15.10
2018-07-07T21:35:20.988Z,14.50
2018-07-07T21:37:49.311Z,14.90
2018-07-07T21:40:17.528Z,14.38
2018-07-07T21:42:45.915Z,14.87
2018-07-07T21:45:14.345Z,14.80
2018-07-07T21:47:42.726Z,16.00
2018-07-07T21:50:11.102Z,15.77
2018-07-07T21:52:39.472Z,16.50
2018-07-07T21:55:07.821Z,15.57
2018-07-07T21:57:41.808Z,15.60
2018-07-07T22:00:10.374Z,15.70
2018-07-07T22:02:44.150Z,15.37
2018-07-07T22:05:17.971Z,15.60
2018-07-07T22:07:46.040Z,15.80
2018-07-07T22:10:14.388Z,16.67
2018-07-07T22:12:42.703Z,16.17
2018-07-07T22:15:11.072Z,15.90
2018-07-07T22:17:39.460Z,17.60
2018-07-07T22:20:07.839Z,17.90
2018-07-07T22:22:36.211Z,17.50
2018-07-07T22:25:04.699Z,17.80
2018-07-07T22:27:33.063Z,17.77
2018-07-07T22:30:01.357Z,16.50
2018-07-07T22:32:33.973Z,17.67
2018-07-07T22:36:06.434Z,17.70
2018-07-07T22:38:40.268Z,17.77
2018-07-07T22:41:08.615Z,18.52
2018-07-07T22:43:36.959Z,16.90
2018-07-07T22:46:05.304Z,17.90
2018-07-07T22:48:33.650Z,16.97
2018-07-07T22:51:01.962Z,18.87
2018-07-07T22:53:30.314Z,18.67
2018-07-07T22:55:58.652Z,18.17
2018-07-07T22:58:26.988Z,18.00
2018-07-07T23:00:56.184Z,18.12
2018-07-07T23:03:24.609Z,17.43
2018-07-07T23:05:52.928Z,18.90
2018-07-07T23:08:21.376Z,17.83
2018-07-07T23:10:49.643Z,17.67
2018-07-07T23:13:17.994Z,16.97
2018-07-07T23:15:46.455Z,16.97
2018-07-07T23:18:14.987Z,16.70
2018-07-07T23:20:43.320Z,15.23
2018-07-07T23:23:11.635Z,15.60
2018-07-07T23:25:40.011Z,16.73
2018-07-07T23:28:08.367Z,15.27
2018-07-07T23:30:36.676Z,14.97
2018-07-07T23:33:06.724Z,14.83
2018-07-07T23:35:35.016Z,15.00
2018-07-07T23:38:03.304Z,12.90
2018-07-07T23:40:31.728Z,13.90
2018-07-07T23:42:59.999Z,14.20
2018-07-07T23:45:28.360Z,15.18
2018-07-07T23:47:56.727Z,14.17
2018-07-07T23:50:25.082Z,13.80
2018-07-07T23:52:53.676Z,13.97
2018-07-07T23:55:22.007Z,14.50
2018-07-07T23:57:50.364Z,13.50
